createdAt,value
2022-09-01T00:01:40.167Z,22.57
2022-09-01T00:04:16.273Z,22.55
2022-09-01T00:06:49.905Z,22.54
2022-09-01T00:09:24.613Z,22.52
2022-09-01T00:11:57.702Z,22.50
2022-09-01T00:14:37.413Z,22.48
2022-09-01T00:17:12.112Z,22.43
2022-09-01T00:19:45.057Z,22.43
2022-09-01T00:22:17.969Z,22.40
2022-09-01T00:24:51.830Z,22.36
2022-09-01T00:27:27.876Z,22.35
2022-09-01T00:30:00.363Z,22.33
2022-09-01T00:32:33.438Z,22.31
2022-09-01T00:35:09.115Z,22.31
2022-09-01T00:37:42.048Z,22.31
2022-09-01T00:40:17.825Z,22.33
2022-09-01T00:42:50.913Z,22.34
2022-09-01T00:45:24.149Z,22.32
2022-09-01T00:47:57.284Z,22.31
2022-09-01T00:50:30.839Z,22.30
2022-09-01T00:53:03.905Z,22.29
2022-09-01T00:55:39.679Z,22.27
2022-09-01T00:58:19.921Z,22.27
2022-09-01T01:00:49.904Z,22.25
2022-09-01T01:03:24.323Z,22.22
2022-09-01T01:05:59.613Z,22.15
2022-09-01T01:08:35.639Z,22.15
2022-09-01T01:11:14.448Z,22.12
2022-09-01T01:13:59.358Z,22.09
2022-09-01T01:16:32.966Z,22.05
2022-09-01T01:19:06.650Z,22.02
2022-09-01T01:22:01.550Z,21.98
2022-09-01T01:24:36.477Z,21.94
2022-09-01T01:27:09.633Z,21.88
2022-09-01T01:29:43.243Z,21.85
2022-09-01T01:32:16.673Z,21.83
2022-09-01T01:34:50.807Z,21.83
2022-09-01T01:37:25.682Z,21.81
2022-09-01T01:39:59.240Z,21.77
2022-09-01T01:42:35.024Z,21.72
2022-09-01T01:45:10.315Z,21.69
2022-09-01T01:47:50.373Z,21.67
2022-09-01T01:50:33.158Z,21.66
2022-09-01T01:53:10.960Z,21.65
2022-09-01T01:55:44.793Z,21.66
2022-09-01T01:58:21.022Z,21.65
2022-09-01T02:00:56.310Z,21.64
2022-09-01T02:03:34.772Z,21.65
2022-09-01T02:06:12.296Z,21.63
2022-09-01T02:08:46.730Z,21.61
2022-09-01T02:11:20.095Z,21.61
2022-09-01T02:13:55.190Z,21.60
2022-09-01T02:16:32.092Z,21.60
2022-09-01T02:19:09.180Z,21.57
2022-09-01T02:21:44.993Z,21.53
2022-09-01T02:24:18.638Z,21.46
2022-09-01T02:26:51.676Z,21.42
2022-09-01T02:29:27.206Z,21.40
2022-09-01T02:32:00.912Z,21.38
2022-09-01T02:34:37.204Z,21.38
2022-09-01T02:37:11.109Z,21.36
2022-09-01T02:39:44.505Z,21.37
2022-09-01T02:42:20.895Z,21.35
2022-09-01T02:44:58.956Z,21.31
2022-09-01T02:47:31.943Z,21.28
2022-09-01T02:50:05.218Z,21.26
2022-09-01T02:52:40.270Z,21.24
2022-09-01T02:55:14.155Z,21.22
2022-09-01T02:57:49.399Z,21.15
2022-09-01T03:00:23.930Z,21.05
2022-09-01T03:03:02.285Z,20.95
2022-09-01T03:05:39.389Z,20.86
2022-09-01T03:08:15.588Z,20.83
2022-09-01T03:10:48.824Z,20.85
2022-09-01T03:13:25.519Z,20.84
2022-09-01T03:15:58.657Z,20.85
2022-09-01T03:18:32.276Z,20.89
2022-09-01T03:21:06.767Z,20.87
2022-09-01T03:23:39.738Z,20.87
2022-09-01T03:26:14.037Z,20.88
2022-09-01T03:28:49.795Z,20.92
2022-09-01T03:31:22.145Z,20.98
2022-09-01T03:33:57.359Z,21.02
2022-09-01T03:36:33.681Z,21.05
2022-09-01T03:39:09.908Z,21.07
2022-09-01T03:41:43.971Z,21.09
2022-09-01T03:44:17.879Z,21.08
2022-09-01T03:46:52.126Z,21.09
2022-09-01T03:49:26.144Z,21.12
2022-09-01T03:52:00.610Z,21.12
2022-09-01T03:54:33.283Z,21.14
2022-09-01T03:57:08.202Z,21.15
2022-09-01T03:59:43.725Z,21.16
2022-09-01T04:02:16.783Z,21.19
2022-09-01T04:04:49.974Z,21.22
2022-09-01T04:07:24.481Z,21.25
2022-09-01T04:09:57.825Z,21.28
2022-09-01T04:12:31.443Z,21.30
2022-09-01T04:15:05.004Z,21.30
2022-09-01T04:17:55.776Z,21.30
2022-09-01T04:20:29.503Z,21.30
2022-09-01T04:23:04.223Z,21.32
2022-09-01T04:25:41.900Z,21.33
2022-09-01T04:28:17.210Z,21.36
2022-09-01T04:30:58.820Z,21.39
2022-09-01T04:33:33.632Z,21.45
2022-09-01T04:36:11.127Z,21.49
2022-09-01T04:38:44.534Z,21.57
2022-09-01T04:41:18.035Z,21.57
2022-09-01T04:43:52.379Z,21.58
2022-09-01T04:46:33.265Z,21.57
2022-09-01T04:49:13.323Z,21.59
2022-09-01T04:51:53.301Z,21.62
2022-09-01T04:54:25.210Z,21.65
2022-09-01T04:56:58.495Z,21.69
2022-09-01T04:59:33.580Z,21.75
2022-09-01T05:02:08.726Z,21.83
2022-09-01T05:04:43.866Z,21.94
2022-09-01T05:07:19.308Z,22.05
2022-09-01T05:09:57.985Z,22.12
2022-09-01T05:12:47.092Z,22.17
2022-09-01T05:15:21.088Z,22.25
2022-09-01T05:17:55.779Z,22.31
2022-09-01T05:20:30.407Z,22.36
2022-09-01T05:23:03.499Z,22.44
2022-09-01T05:25:44.425Z,22.53
2022-09-01T05:28:20.496Z,22.62
2022-09-01T05:30:56.619Z,22.69
2022-09-01T05:33:30.037Z,22.72
2022-09-01T05:36:04.921Z,22.73
2022-09-01T05:38:40.796Z,22.74
2022-09-01T05:41:16.812Z,22.81
2022-09-01T05:43:57.765Z,23.01
2022-09-01T05:46:30.246Z,23.01
2022-09-01T05:49:06.845Z,23.06
2022-09-01T05:51:46.331Z,23.11
2022-09-01T05:54:24.496Z,23.18
2022-09-01T05:57:23.404Z,23.25
2022-09-01T05:59:39.720Z,23.47
2022-09-01T06:02:18.242Z,23.47
2022-09-01T06:04:53.413Z,23.60
2022-09-01T06:07:28.845Z,23.62
2022-09-01T06:10:03.040Z,23.65
2022-09-01T06:12:37.296Z,23.67
2022-09-01T06:15:12.566Z,23.68
2022-09-01T06:17:49.627Z,23.66
2022-09-01T06:20:23.277Z,23.62
2022-09-01T06:22:56.293Z,23.59
2022-09-01T06:25:30.939Z,23.58
2022-09-01T06:28:04.930Z,23.56
2022-09-01T06:30:39.199Z,23.56
2022-09-01T06:33:14.897Z,23.56
2022-09-01T06:35:49.442Z,23.54
2022-09-01T06:38:25.512Z,23.50
2022-09-01T06:41:04.641Z,23.50
2022-09-01T06:43:39.519Z,23.46
2022-09-01T06:46:13.523Z,23.44
2022-09-01T06:48:49.947Z,23.44
2022-09-01T06:51:25.381Z,23.38
2022-09-01T06:54:01.054Z,23.11
2022-09-01T06:56:38.946Z,23.11
2022-09-01T06:59:13.816Z,22.95
2022-09-01T07:01:49.890Z,22.59
2022-09-01T07:07:53.375Z,22.40
2022-09-01T07:09:47.722Z,22.19
2022-09-01T07:17:34.644Z,21.67
2022-09-01T07:20:26.773Z,21.65
2022-09-01T07:25:21.676Z,21.60
2022-09-01T07:28:00.657Z,21.59
2022-09-01T07:30:35.645Z,21.56
2022-09-01T07:42:59.008Z,22.59
2022-09-01T07:43:52.582Z,21.65
2022-09-01T07:46:37.066Z,21.71
2022-09-01T07:51:42.215Z,21.75
2022-09-01T07:54:16.307Z,21.71
2022-09-01T07:56:50.637Z,21.69
2022-09-01T07:59:24.087Z,21.69
2022-09-01T08:02:03.498Z,21.66
2022-09-01T08:04:39.088Z,21.57
2022-09-01T08:07:16.261Z,21.47
2022-09-01T08:09:48.349Z,21.30
2022-09-01T08:12:28.818Z,21.07
2022-09-01T08:15:38.090Z,20.95
2022-09-01T08:17:50.258Z,20.85
2022-09-01T08:20:14.069Z,20.82
2022-09-01T08:22:48.228Z,20.84
2022-09-01T08:25:25.020Z,20.90
2022-09-01T08:28:00.252Z,20.95
2022-09-01T08:30:34.673Z,20.99
2022-09-01T08:33:10.531Z,21.01
2022-09-01T08:35:50.002Z,21.02
2022-09-01T08:38:24.269Z,20.99
2022-09-01T08:40:59.515Z,20.94
2022-09-01T08:44:05.470Z,20.88
2022-09-01T08:46:43.810Z,20.75
2022-09-01T08:49:26.139Z,20.63
2022-09-01T08:52:32.846Z,20.55
2022-09-01T08:55:30.296Z,20.43
2022-09-01T08:58:05.479Z,20.31
2022-09-01T09:00:59.987Z,20.19
2022-09-01T09:03:49.668Z,20.08
2022-09-01T09:06:33.351Z,20.02
2022-09-01T09:09:11.740Z,19.94
2022-09-01T09:12:10.384Z,19.88
2022-09-01T09:15:01.045Z,19.85
2022-09-01T09:17:39.918Z,19.75
2022-09-01T09:20:12.855Z,19.70
2022-09-01T09:22:47.690Z,19.71
2022-09-01T09:25:21.070Z,19.73
2022-09-01T09:28:01.531Z,19.67
2022-09-01T09:30:32.783Z,19.62
2022-09-01T09:33:44.326Z,19.55
2022-09-01T09:35:48.135Z,19.50
2022-09-01T09:40:25.031Z,19.48
2022-09-01T09:41:26.821Z,19.47
2022-09-01T09:44:06.340Z,19.45
2022-09-01T09:46:44.436Z,19.43
2022-09-01T09:49:36.520Z,19.39
2022-09-01T09:52:12.326Z,19.40
2022-09-01T09:55:07.598Z,19.51
2022-09-01T09:57:42.860Z,19.61
2022-09-01T10:00:26.369Z,19.68
2022-09-01T10:03:04.610Z,19.77
2022-09-01T10:05:45.644Z,19.86
2022-09-01T10:08:41.691Z,19.93
2022-09-01T10:11:40.888Z,20.00
2022-09-01T10:14:47.959Z,20.14
2022-09-01T10:17:06.474Z,20.29
2022-09-01T10:19:42.370Z,20.38
2022-09-01T10:22:15.517Z,20.41
2022-09-01T10:24:50.548Z,20.46
2022-09-01T10:27:27.096Z,20.49
2022-09-01T10:30:20.217Z,20.50
2022-09-01T10:32:58.136Z,20.48
2022-09-01T10:35:39.686Z,20.49
2022-09-01T10:38:20.208Z,20.51
2022-09-01T10:41:09.234Z,20.57
2022-09-01T10:43:49.157Z,20.60
2022-09-01T10:46:49.377Z,20.65
2022-09-01T10:52:08.570Z,20.69
2022-09-01T10:54:55.841Z,20.75
2022-09-01T10:57:49.858Z,20.83
2022-09-01T11:00:35.423Z,20.91
2022-09-01T11:03:40.944Z,20.97
2022-09-01T11:06:13.205Z,21.01
2022-09-01T11:08:50.993Z,21.04
2022-09-01T11:11:46.400Z,21.07
2022-09-01T11:14:28.077Z,21.19
2022-09-01T11:17:25.576Z,21.32
2022-09-01T11:20:10.185Z,21.46
2022-09-01T11:22:46.187Z,21.64
2022-09-01T11:25:44.513Z,21.76
2022-09-01T11:28:32.988Z,21.91
2022-09-01T11:31:14.878Z,22.04
2022-09-01T11:34:17.939Z,22.16
2022-09-01T11:37:01.631Z,22.21
2022-09-01T11:39:39.494Z,22.26
2022-09-01T11:42:28.890Z,22.30
2022-09-01T11:45:21.534Z,22.30
2022-09-01T11:48:09.276Z,22.32
2022-09-01T11:50:43.953Z,22.33
2022-09-01T11:53:23.450Z,22.30
2022-09-01T11:55:59.010Z,22.28
2022-09-01T11:58:38.988Z,22.29
2022-09-01T12:01:34.325Z,22.34
2022-09-01T12:04:27.898Z,22.38
2022-09-01T12:07:05.682Z,22.50
2022-09-01T12:09:48.314Z,22.68
2022-09-01T12:12:37.017Z,22.81
2022-09-01T12:15:26.236Z,22.92
2022-09-01T12:18:22.795Z,22.92
2022-09-01T12:21:00.173Z,22.96
2022-09-01T12:23:37.737Z,22.98
2022-09-01T12:26:17.297Z,23.01
2022-09-01T12:28:51.190Z,23.00
2022-09-01T12:31:27.317Z,22.99
2022-09-01T12:34:01.904Z,22.95
2022-09-01T12:36:39.269Z,22.99
2022-09-01T12:39:25.000Z,22.99
2022-09-01T12:42:25.500Z,23.05
2022-09-01T12:45:04.864Z,23.26
2022-09-01T12:47:44.101Z,23.26
2022-09-01T12:50:31.602Z,23.35
2022-09-01T12:53:08.420Z,23.43
2022-09-01T12:55:49.753Z,23.46
2022-09-01T12:58:23.385Z,23.48
2022-09-01T13:01:16.087Z,23.48
2022-09-01T13:03:42.780Z,23.49
2022-09-01T13:06:15.971Z,23.53
2022-09-01T13:08:50.082Z,23.56
2022-09-01T13:11:23.218Z,23.57
2022-09-01T13:13:56.154Z,23.64
2022-09-01T13:16:29.166Z,23.64
2022-09-01T13:19:26.494Z,23.60
2022-09-01T13:24:10.975Z,23.62
2022-09-01T13:27:20.354Z,23.68
2022-09-01T13:29:20.923Z,23.75
2022-09-01T13:34:31.075Z,23.74
2022-09-01T13:37:04.359Z,23.69
2022-09-01T13:39:37.818Z,23.64
2022-09-01T13:42:11.075Z,23.63
2022-09-01T13:44:46.301Z,23.60
2022-09-01T13:48:15.295Z,23.61
2022-09-01T13:50:12.000Z,23.68
2022-09-01T13:52:30.470Z,23.72
2022-09-01T13:55:03.558Z,23.78
2022-09-01T13:57:37.227Z,23.79
2022-09-01T14:00:20.625Z,23.80
2022-09-01T14:02:56.724Z,23.83
2022-09-01T14:05:34.776Z,23.86
2022-09-01T14:08:09.763Z,23.91
2022-09-01T14:10:47.346Z,23.97
2022-09-01T14:13:25.246Z,23.99
2022-09-01T14:16:00.147Z,24.00
2022-09-01T14:18:37.004Z,23.98
2022-09-01T14:21:15.889Z,23.99
2022-09-01T14:23:49.174Z,23.97
2022-09-01T14:26:22.799Z,23.95
2022-09-01T14:28:58.283Z,23.97
2022-09-01T14:31:32.501Z,23.97
2022-09-01T14:34:07.244Z,24.00
2022-09-01T14:36:59.200Z,24.00
2022-09-01T14:39:32.782Z,23.96
2022-09-01T14:42:07.506Z,23.96
2022-09-01T14:44:41.279Z,23.94
2022-09-01T14:47:19.825Z,23.90
2022-09-01T14:49:49.601Z,23.86
2022-09-01T14:52:23.002Z,23.81
2022-09-01T14:54:55.982Z,23.76
2022-09-01T14:57:31.003Z,23.73
2022-09-01T15:00:04.339Z,23.69
2022-09-01T15:02:39.560Z,23.66
2022-09-01T15:05:14.102Z,23.64
2022-09-01T15:07:47.316Z,23.61
2022-09-01T15:10:25.067Z,23.59
2022-09-01T15:13:02.001Z,23.57
2022-09-01T15:15:35.951Z,23.55
2022-09-01T15:18:08.363Z,23.52
2022-09-01T15:20:47.568Z,23.51
2022-09-01T15:23:23.970Z,23.47
2022-09-01T15:25:58.210Z,23.43
2022-09-01T15:28:31.414Z,23.39
2022-09-01T15:31:04.405Z,23.34
2022-09-01T15:33:38.444Z,23.29
2022-09-01T15:36:16.787Z,23.25
2022-09-01T15:38:50.606Z,23.21
2022-09-01T15:41:28.423Z,23.17
2022-09-01T15:44:02.995Z,23.10
2022-09-01T15:46:39.268Z,23.06
2022-09-01T15:49:13.670Z,23.00
2022-09-01T15:51:46.286Z,23.00
2022-09-01T15:54:30.709Z,22.94
2022-09-01T15:57:03.198Z,22.88
2022-09-01T15:59:38.819Z,22.82
2022-09-01T16:02:12.570Z,22.78
2022-09-01T16:04:46.211Z,22.73
2022-09-01T16:07:19.166Z,22.72
2022-09-01T16:09:53.734Z,22.69
2022-09-01T16:12:27.519Z,22.66
2022-09-01T16:15:00.327Z,22.63
2022-09-01T16:18:01.454Z,22.61
2022-09-01T16:21:09.282Z,22.59
2022-09-01T16:23:48.685Z,22.57
2022-09-01T16:26:23.998Z,22.56
2022-09-01T16:29:00.123Z,22.54
2022-09-01T16:31:35.298Z,22.52
2022-09-01T16:34:18.509Z,22.51
2022-09-01T16:37:08.059Z,22.48
2022-09-01T16:39:54.103Z,22.43
2022-09-01T16:42:45.000Z,22.36
2022-09-01T16:45:43.048Z,22.36
2022-09-01T16:48:38.600Z,22.36
2022-09-01T16:51:34.295Z,22.34
2022-09-01T16:54:16.113Z,22.32
2022-09-01T16:57:10.708Z,22.26
2022-09-01T17:00:02.124Z,22.19
2022-09-01T17:03:05.477Z,22.16
2022-09-01T17:05:43.273Z,22.14
2022-09-01T17:08:28.527Z,22.13
2022-09-01T17:11:23.767Z,22.09
2022-09-01T17:13:58.400Z,22.07
2022-09-01T17:16:38.854Z,22.04
2022-09-01T17:19:21.155Z,22.00
2022-09-01T17:22:06.614Z,21.90
2022-09-01T17:24:45.158Z,21.86
2022-09-01T17:27:32.348Z,21.86
2022-09-01T17:30:07.461Z,21.86
2022-09-01T17:33:01.647Z,21.79
2022-09-01T17:35:53.916Z,21.69
2022-09-01T17:38:40.383Z,21.61
2022-09-01T17:41:35.543Z,21.52
2022-09-01T17:44:22.191Z,21.45
2022-09-01T17:47:23.433Z,21.38
2022-09-01T17:50:03.453Z,21.30
2022-09-01T17:53:10.379Z,21.16
2022-09-01T17:55:53.800Z,21.00
2022-09-01T17:58:57.358Z,20.86
2022-09-01T18:01:46.668Z,20.86
2022-09-01T18:04:49.694Z,20.88
2022-09-01T18:08:07.495Z,20.84
2022-09-01T18:10:58.138Z,20.82
2022-09-01T18:13:52.362Z,20.75
2022-09-01T18:16:19.855Z,20.80
2022-09-01T18:18:54.652Z,20.83
2022-09-01T18:21:31.937Z,20.85
2022-09-01T18:24:32.185Z,20.87
2022-09-01T18:27:07.591Z,20.90
2022-09-01T18:29:41.255Z,20.92
2022-09-01T18:32:39.522Z,20.92
2022-09-01T18:35:23.226Z,20.92
2022-09-01T18:38:12.392Z,20.88
2022-09-01T18:41:06.551Z,20.76
2022-09-01T18:43:44.924Z,20.58
2022-09-01T18:47:11.236Z,20.41
2022-09-01T18:50:12.255Z,20.28
2022-09-01T18:53:18.003Z,20.14
2022-09-01T18:56:14.113Z,20.05
2022-09-01T18:59:25.771Z,19.96
2022-09-01T19:02:17.420Z,19.88
2022-09-01T19:04:54.193Z,19.85
2022-09-01T19:07:52.776Z,19.85
2022-09-01T19:10:49.317Z,19.83
2022-09-01T19:13:53.866Z,19.80
2022-09-01T19:16:58.763Z,19.80
2022-09-01T19:20:14.273Z,19.76
2022-09-01T19:23:13.935Z,19.71
2022-09-01T19:25:48.747Z,19.62
2022-09-01T19:28:44.126Z,19.50
2022-09-01T19:31:30.636Z,19.42
2022-09-01T19:34:08.433Z,19.36
2022-09-01T19:37:02.314Z,19.32
2022-09-01T19:39:52.113Z,19.34
2022-09-01T19:42:41.523Z,19.39
2022-09-01T19:45:19.271Z,19.43
2022-09-01T19:48:15.883Z,19.44
2022-09-01T19:51:05.761Z,19.45
2022-09-01T19:54:01.882Z,19.46
2022-09-01T19:57:03.601Z,19.47
2022-09-01T19:59:50.186Z,19.44
2022-09-01T20:02:33.185Z,19.39
2022-09-01T20:05:19.820Z,19.35
2022-09-01T20:08:09.478Z,19.31
2022-09-01T20:11:05.759Z,19.28
2022-09-01T20:13:58.821Z,19.26
2022-09-01T20:16:44.760Z,19.23
2022-09-01T20:19:51.353Z,19.18
2022-09-01T20:22:40.757Z,19.17
2022-09-01T20:25:18.202Z,19.14
2022-09-01T20:28:13.546Z,19.11
2022-09-01T20:30:50.484Z,19.09
2022-09-01T20:33:33.566Z,19.08
2022-09-01T20:36:32.555Z,19.08
2022-09-01T20:39:27.918Z,19.07
2022-09-01T20:42:05.221Z,19.06
2022-09-01T20:44:57.739Z,19.05
2022-09-01T20:47:33.597Z,19.01
2022-09-01T20:50:15.205Z,18.96
2022-09-01T20:53:36.038Z,18.96
2022-09-01T20:56:28.694Z,18.95
2022-09-01T20:59:10.103Z,18.94
2022-09-01T21:02:09.023Z,18.94
2022-09-01T21:05:05.804Z,18.93
2022-09-01T21:07:49.279Z,18.92
2022-09-01T21:10:41.658Z,18.94
2022-09-01T21:13:37.824Z,18.95
2022-09-01T21:16:40.326Z,18.95
2022-09-01T21:19:37.129Z,18.97
2022-09-01T21:22:15.014Z,19.00
2022-09-01T21:24:48.627Z,19.02
2022-09-01T21:27:27.742Z,19.05
2022-09-01T21:30:05.132Z,19.05
2022-09-01T21:32:39.962Z,19.06
2022-09-01T21:35:15.177Z,19.06
2022-09-01T21:37:48.155Z,19.05
2022-09-01T21:40:24.115Z,19.03
2022-09-01T21:43:03.630Z,19.03
2022-09-01T21:45:38.679Z,19.00
2022-09-01T21:48:12.458Z,19.00
2022-09-01T21:50:47.077Z,18.96
2022-09-01T21:53:20.691Z,18.93
2022-09-01T21:55:53.423Z,18.88
2022-09-01T21:58:26.170Z,18.80
2022-09-01T22:00:59.012Z,18.72
2022-09-01T22:03:32.171Z,18.67
2022-09-01T22:06:06.192Z,18.59
2022-09-01T22:08:38.512Z,18.55
2022-09-01T22:11:13.686Z,18.54
2022-09-01T22:13:48.696Z,18.50
2022-09-01T22:16:23.251Z,18.45
2022-09-01T22:18:56.206Z,18.40
2022-09-01T22:21:31.112Z,18.34
2022-09-01T22:24:03.455Z,18.30
2022-09-01T22:26:36.627Z,18.26
2022-09-01T22:29:10.017Z,18.19
2022-09-01T22:31:43.186Z,18.12
2022-09-01T22:34:16.390Z,18.07
2022-09-01T22:36:50.909Z,18.02
2022-09-01T22:39:25.624Z,17.98
2022-09-01T22:41:58.466Z,17.93
2022-09-01T22:44:31.969Z,17.89
2022-09-01T22:47:05.499Z,17.84
2022-09-01T22:49:38.534Z,17.80
2022-09-01T22:52:11.682Z,17.70
2022-09-01T22:54:46.456Z,17.64
2022-09-01T22:57:20.501Z,17.60
2022-09-01T22:59:53.402Z,17.56
2022-09-01T23:02:26.644Z,17.52
2022-09-01T23:04:59.547Z,17.51
2022-09-01T23:07:32.713Z,17.46
2022-09-01T23:10:09.041Z,17.42
2022-09-01T23:12:42.837Z,17.41
2022-09-01T23:15:16.554Z,17.40
2022-09-01T23:17:49.853Z,17.40
2022-09-01T23:20:22.956Z,17.38
2022-09-01T23:22:55.956Z,17.34
2022-09-01T23:25:29.096Z,17.29
2022-09-01T23:28:02.243Z,17.25
2022-09-01T23:30:36.064Z,17.21
2022-09-01T23:33:08.960Z,17.11
2022-09-01T23:35:47.939Z,17.02
2022-09-01T23:38:23.492Z,16.99
2022-09-01T23:40:58.275Z,16.99
2022-09-01T23:43:31.104Z,16.99
2022-09-01T23:46:05.433Z,16.99
2022-09-01T23:48:38.562Z,16.98
2022-09-01T23:51:12.803Z,16.96
2022-09-01T23:53:46.686Z,16.95
2022-09-01T23:56:23.916Z,16.91
2022-09-01T23:58:57.115Z,16.86
